Time;durP1;ratioP1;P1;durP2;ratioP2;P2;SDS_P1;SDS_P2;PMS_P1;PMS_P2;Temp;Humidity;BMP_temperature;BMP_pressure;BME280_temperature;BME280_humidity;BME280_pressure;Samples;Min_cycle;Max_cycle;Signal;HPM_P1;HPM_P2
2023/12/13 00:01:40;;;;;;;0.20;0.10;;;;;;;;;;4975664;28;20122;-85
2023/12/13 00:04:06;;;;;;;0.20;0.00;;;;;;;;;;4951452;28;20137;-85
2023/12/13 00:06:32;;;;;;;0.75;0.40;;;;;;;;;;4979786;28;20368;-84
2023/12/13 00:08:58;;;;;;;0.20;0.10;;;;;;;;;;4982753;28;20528;-85
2023/12/13 00:11:24;;;;;;;0.20;0.00;;;;;;;;;;4977640;28;20054;-86
2023/12/13 00:13:50;;;;;;;0.20;0.00;;;;;;;;;;4980542;28;20101;-86
2023/12/13 00:16:18;;;;;;;0.20;0.10;;;;;;;;;;4977968;28;20038;-85
2023/12/13 00:18:46;;;;;;;0.20;0.00;;;;;;;;;;4978747;28;20043;-87
2023/12/13 00:21:13;;;;;;;0.20;0.10;;;;;;;;;;4976699;28;20141;-86
2023/12/13 00:23:39;;;;;;;0.20;0.10;;;;;;;;;;4956523;28;20034;-87
2023/12/13 00:26:05;;;;;;;0.20;0.20;;;;;;;;;;4979520;28;20419;-87
2023/12/13 00:28:31;;;;;;;0.20;0.10;;;;;;;;;;4977102;28;20077;-85
2023/12/13 00:30:57;;;;;;;0.20;0.10;;;;;;;;;;4979881;28;20046;-86
2023/12/13 00:33:23;;;;;;;0.20;0.10;;;;;;;;;;4976738;28;20054;-86
2023/12/13 00:35:49;;;;;;;0.20;0.10;;;;;;;;;;4968503;28;20054;-86
2023/12/13 00:38:15;;;;;;;0.20;0.05;;;;;;;;;;4952490;28;20042;-85
2023/12/13 00:40:41;;;;;;;0.20;0.00;;;;;;;;;;4975417;28;20043;-86
2023/12/13 00:43:07;;;;;;;1.33;0.20;;;;;;;;;;4966492;28;20174;-85
2023/12/13 00:45:33;;;;;;;0.20;0.00;;;;;;;;;;4952174;28;20042;-85
2023/12/13 00:47:59;;;;;;;0.20;0.00;;;;;;;;;;4980110;28;20069;-84
2023/12/13 00:50:25;;;;;;;0.20;0.00;;;;;;;;;;4976991;28;20039;-85
2023/12/13 00:52:51;;;;;;;0.20;0.10;;;;;;;;;;4967395;28;20041;-85
2023/12/13 00:55:17;;;;;;;0.25;0.10;;;;;;;;;;4966641;28;20042;-85
2023/12/13 00:57:43;;;;;;;0.20;0.00;;;;;;;;;;4980739;28;20156;-85
2023/12/13 01:00:10;;;;;;;0.20;0.00;;;;;;;;;;4979911;28;20098;-85
2023/12/13 01:02:36;;;;;;;0.32;0.20;;;;;;;;;;4974595;28;20031;-85
2023/12/13 01:05:02;;;;;;;0.20;0.10;;;;;;;;;;4978269;28;20035;-84
2023/12/13 01:07:28;;;;;;;1.75;0.57;;;;;;;;;;4978150;28;20050;-85
2023/12/13 01:09:54;;;;;;;0.28;0.08;;;;;;;;;;4952529;28;20046;-84
2023/12/13 01:12:20;;;;;;;0.20;0.10;;;;;;;;;;4978504;28;20550;-84
2023/12/13 01:14:46;;;;;;;0.20;0.00;;;;;;;;;;4981105;28;20047;-84
2023/12/13 01:17:12;;;;;;;0.20;0.10;;;;;;;;;;4984064;28;20473;-85
2023/12/13 01:19:38;;;;;;;0.40;0.20;;;;;;;;;;4957591;28;20582;-84
2023/12/13 01:22:04;;;;;;;0.20;0.10;;;;;;;;;;4981148;28;20038;-87
2023/12/13 01:24:30;;;;;;;0.20;0.08;;;;;;;;;;4976701;28;20085;-85
2023/12/13 01:26:57;;;;;;;0.20;0.10;;;;;;;;;;4979141;28;20043;-85
2023/12/13 01:29:24;;;;;;;0.20;0.10;;;;;;;;;;4965648;28;20053;-85
2023/12/13 01:31:50;;;;;;;0.20;0.00;;;;;;;;;;4978917;28;20046;-85
2023/12/13 01:34:16;;;;;;;0.20;0.10;;;;;;;;;;4964221;28;20038;-85
2023/12/13 01:36:42;;;;;;;0.20;0.00;;;;;;;;;;4972472;28;20049;-84
2023/12/13 01:39:09;;;;;;;1.27;0.28;;;;;;;;;;4965107;28;20042;-85
2023/12/13 01:41:35;;;;;;;0.20;0.20;;;;;;;;;;4961476;28;20066;-84
2023/12/13 01:44:01;;;;;;;0.20;0.00;;;;;;;;;;4987387;28;20125;-85
2023/12/13 01:46:30;;;;;;;0.20;0.10;;;;;;;;;;4979464;28;20121;-83
2023/12/13 01:48:56;;;;;;;0.20;0.00;;;;;;;;;;4992063;28;20049;-85
2023/12/13 01:51:22;;;;;;;0.20;0.10;;;;;;;;;;4977577;28;20070;-84
2023/12/13 01:53:49;;;;;;;0.20;0.05;;;;;;;;;;4966806;28;20039;-84
2023/12/13 01:56:15;;;;;;;0.20;0.10;;;;;;;;;;4954482;28;20038;-84
2023/12/13 01:58:41;;;;;;;0.75;0.35;;;;;;;;;;4982408;28;20034;-85
2023/12/13 02:01:08;;;;;;;0.20;0.10;;;;;;;;;;4979830;28;20774;-85
2023/12/13 02:03:36;;;;;;;0.20;0.20;;;;;;;;;;4983059;28;20074;-84
2023/12/13 02:06:02;;;;;;;0.52;0.32;;;;;;;;;;4974968;28;20038;-83
2023/12/13 02:08:30;;;;;;;0.20;0.10;;;;;;;;;;4978401;28;20696;-85
2023/12/13 02:10:56;;;;;;;0.63;0.20;;;;;;;;;;4977826;28;20042;-84
2023/12/13 02:13:22;;;;;;;0.40;0.40;;;;;;;;;;4979383;28;20835;-85
2023/12/13 02:15:49;;;;;;;0.40;0.35;;;;;;;;;;4947307;28;20527;-85
2023/12/13 02:18:15;;;;;;;0.20;0.10;;;;;;;;;;4993773;28;20065;-84
2023/12/13 02:20:41;;;;;;;0.20;0.10;;;;;;;;;;4981759;28;20039;-85
2023/12/13 02:23:08;;;;;;;0.20;0.10;;;;;;;;;;4962260;28;20046;-84
2023/12/13 02:25:37;;;;;;;0.20;0.10;;;;;;;;;;4981046;28;20045;-85
2023/12/13 02:28:03;;;;;;;0.20;0.10;;;;;;;;;;4977515;28;20117;-85
2023/12/13 02:30:29;;;;;;;0.20;0.10;;;;;;;;;;4990879;28;20883;-85
2023/12/13 02:32:55;;;;;;;0.20;0.10;;;;;;;;;;4979473;28;20106;-84
2023/12/13 02:35:22;;;;;;;0.20;0.00;;;;;;;;;;4980295;28;20042;-85
2023/12/13 02:37:49;;;;;;;0.20;0.10;;;;;;;;;;4980104;28;20039;-84
2023/12/13 02:40:24;;;;;;;0.20;0.00;;;;;;;;;;4977561;28;20035;-83
2023/12/13 02:42:50;;;;;;;0.20;0.10;;;;;;;;;;4974621;23;20054;-86
2023/12/13 02:45:16;;;;;;;0.20;0.10;;;;;;;;;;4964798;28;20502;-88
2023/12/13 02:47:46;;;;;;;0.20;0.10;;;;;;;;;;4956169;28;20504;-88
2023/12/13 02:50:13;;;;;;;0.20;0.10;;;;;;;;;;4965539;28;20046;-88
2023/12/13 02:52:39;;;;;;;0.20;0.00;;;;;;;;;;4955265;28;20043;-88
2023/12/13 02:55:06;;;;;;;0.20;0.10;;;;;;;;;;4934049;28;20050;-88
2023/12/13 02:57:32;;;;;;;0.20;0.03;;;;;;;;;;4940025;28;20039;-88
2023/12/13 02:59:58;;;;;;;0.20;0.05;;;;;;;;;;4949642;28;20042;-88
2023/12/13 03:02:27;;;;;;;0.20;0.10;;;;;;;;;;4937646;28;20034;-88
2023/12/13 03:04:53;;;;;;;0.20;0.10;;;;;;;;;;4947045;28;20039;-88
2023/12/13 03:07:19;;;;;;;0.20;0.10;;;;;;;;;;4949940;28;20046;-87
2023/12/13 03:09:46;;;;;;;0.20;0.10;;;;;;;;;;4949836;28;20074;-87
2023/12/13 03:12:12;;;;;;;0.20;0.00;;;;;;;;;;4947610;28;20039;-88
2023/12/13 03:14:38;;;;;;;0.57;0.30;;;;;;;;;;4936953;28;20441;-87
2023/12/13 03:17:04;;;;;;;0.20;0.10;;;;;;;;;;4945536;28;20558;-87
2023/12/13 03:19:30;;;;;;;0.20;0.10;;;;;;;;;;4947548;28;20125;-86
2023/12/13 03:21:56;;;;;;;0.20;0.00;;;;;;;;;;4945025;28;20465;-87
2023/12/13 03:24:22;;;;;;;0.20;0.10;;;;;;;;;;4947923;28;20504;-88
2023/12/13 03:26:48;;;;;;;0.20;0.08;;;;;;;;;;4953181;28;20053;-86
2023/12/13 03:29:14;;;;;;;0.20;0.08;;;;;;;;;;4950418;28;20043;-88
2023/12/13 03:31:40;;;;;;;0.20;0.10;;;;;;;;;;4935206;28;20440;-88
2023/12/13 03:34:06;;;;;;;0.32;0.30;;;;;;;;;;4947250;28;20043;-88
2023/12/13 03:36:32;;;;;;;0.20;0.10;;;;;;;;;;4942357;28;20110;-89
2023/12/13 03:38:58;;;;;;;0.20;0.10;;;;;;;;;;4929439;28;20051;-87
2023/12/13 03:41:25;;;;;;;0.20;0.10;;;;;;;;;;4941762;28;20062;-88
2023/12/13 03:43:51;;;;;;;0.20;0.00;;;;;;;;;;4944816;28;20035;-87
2023/12/13 03:46:17;;;;;;;0.40;0.38;;;;;;;;;;4935742;28;20032;-87
2023/12/13 03:48:43;;;;;;;0.20;0.00;;;;;;;;;;4953150;28;20130;-88
2023/12/13 03:51:09;;;;;;;0.20;0.10;;;;;;;;;;4933767;28;20047;-86
2023/12/13 03:53:39;;;;;;;0.40;0.35;;;;;;;;;;4931847;28;20038;-88
2023/12/13 03:56:05;;;;;;;0.20;0.00;;;;;;;;;;4929015;28;20048;-86
2023/12/13 03:58:31;;;;;;;0.20;0.00;;;;;;;;;;4949539;28;21000;-87
2023/12/13 04:01:00;;;;;;;0.20;0.00;;;;;;;;;;4951873;28;20496;-86
2023/12/13 04:03:26;;;;;;;0.20;0.10;;;;;;;;;;4932418;28;20066;-88
2023/12/13 04:05:52;;;;;;;0.20;0.15;;;;;;;;;;4973105;28;20055;-88
2023/12/13 04:08:18;;;;;;;0.20;0.00;;;;;;;;;;4956746;28;20053;-89
2023/12/13 04:10:47;;;;;;;0.20;0.00;;;;;;;;;;4970691;28;20102;-87
2023/12/13 04:13:13;;;;;;;0.40;0.28;;;;;;;;;;4955502;28;20408;-88
2023/12/13 04:15:39;;;;;;;0.20;0.00;;;;;;;;;;4935928;28;20071;-88
2023/12/13 04:18:05;;;;;;;0.20;0.10;;;;;;;;;;4955113;28;20054;-88
2023/12/13 04:20:34;;;;;;;0.20;0.10;;;;;;;;;;4959655;28;20035;-88
2023/12/13 04:23:04;;;;;;;0.20;0.10;;;;;;;;;;4954985;28;20047;-88
2023/12/13 04:25:30;;;;;;;0.20;0.10;;;;;;;;;;4940601;28;20299;-88
2023/12/13 04:27:56;;;;;;;0.20;0.00;;;;;;;;;;4937832;28;20090;-88
2023/12/13 04:30:22;;;;;;;0.20;0.00;;;;;;;;;;4958525;28;20046;-87
2023/12/13 04:32:48;;;;;;;0.20;0.00;;;;;;;;;;4941730;28;20051;-87
2023/12/13 04:35:14;;;;;;;0.20;0.10;;;;;;;;;;4959223;28;20047;-88
2023/12/13 04:37:40;;;;;;;0.20;0.10;;;;;;;;;;4941419;28;20038;-88
2023/12/13 04:40:07;;;;;;;0.20;0.10;;;;;;;;;;4956716;28;20439;-88
2023/12/13 04:42:33;;;;;;;0.20;0.10;;;;;;;;;;4938383;28;20511;-87
2023/12/13 04:44:59;;;;;;;0.20;0.00;;;;;;;;;;4961265;28;20069;-88
2023/12/13 04:47:25;;;;;;;0.20;0.10;;;;;;;;;;4938778;28;20043;-88
2023/12/13 04:49:51;;;;;;;0.20;0.00;;;;;;;;;;4940541;28;20058;-88
2023/12/13 04:52:18;;;;;;;0.20;0.20;;;;;;;;;;4938145;28;20065;-88
2023/12/13 04:54:44;;;;;;;0.20;0.00;;;;;;;;;;4958399;28;20038;-88
2023/12/13 04:57:10;;;;;;;0.20;0.00;;;;;;;;;;4959558;28;20117;-90
2023/12/13 04:59:36;;;;;;;0.20;0.05;;;;;;;;;;4951097;28;20498;-88
2023/12/13 05:02:02;;;;;;;0.20;0.10;;;;;;;;;;4952448;28;20035;-89
2023/12/13 05:04:28;;;;;;;0.20;0.10;;;;;;;;;;4957892;28;20044;-88
2023/12/13 05:06:55;;;;;;;1.50;0.32;;;;;;;;;;4962330;28;20710;-88
2023/12/13 05:09:21;;;;;;;0.20;0.00;;;;;;;;;;4955594;28;20050;-89
2023/12/13 05:11:50;;;;;;;0.20;0.00;;;;;;;;;;4955061;28;20555;-88
2023/12/13 05:14:16;;;;;;;0.20;0.10;;;;;;;;;;4950853;28;20082;-88
2023/12/13 05:16:42;;;;;;;0.20;0.10;;;;;;;;;;4953149;28;20963;-88
2023/12/13 05:19:08;;;;;;;0.20;0.00;;;;;;;;;;4949878;28;20055;-87
2023/12/13 05:21:34;;;;;;;0.20;0.00;;;;;;;;;;4947135;28;20065;-88
2023/12/13 05:24:03;;;;;;;0.20;0.10;;;;;;;;;;4941218;28;20034;-88
2023/12/13 05:26:29;;;;;;;0.20;0.10;;;;;;;;;;4960330;28;20105;-87
2023/12/13 05:28:55;;;;;;;0.20;0.10;;;;;;;;;;4942540;28;20562;-88
2023/12/13 05:31:22;;;;;;;0.20;0.03;;;;;;;;;;4956715;28;20051;-86
2023/12/13 05:33:50;;;;;;;0.20;0.08;;;;;;;;;;4951343;28;20089;-87
2023/12/13 05:36:16;;;;;;;0.68;0.50;;;;;;;;;;4948980;28;20043;-87
2023/12/13 05:38:43;;;;;;;0.20;0.10;;;;;;;;;;4954564;28;20486;-86
2023/12/13 05:41:11;;;;;;;0.20;0.10;;;;;;;;;;4936125;28;20039;-87
2023/12/13 05:43:40;;;;;;;0.30;0.30;;;;;;;;;;4956746;28;20041;-88
2023/12/13 05:46:10;;;;;;;0.20;0.00;;;;;;;;;;4952432;28;20439;-89
2023/12/13 05:48:36;;;;;;;0.20;0.10;;;;;;;;;;4955341;28;20042;-87
2023/12/13 05:51:02;;;;;;;0.40;0.30;;;;;;;;;;4950482;28;20073;-87
2023/12/13 05:53:29;;;;;;;0.20;0.10;;;;;;;;;;4930934;28;20059;-88
2023/12/13 05:55:57;;;;;;;0.20;0.10;;;;;;;;;;4938179;28;20031;-87
2023/12/13 05:58:24;;;;;;;0.20;0.10;;;;;;;;;;4953082;28;20043;-86
2023/12/13 06:00:50;;;;;;;0.20;0.00;;;;;;;;;;4941545;28;20050;-87
2023/12/13 06:03:16;;;;;;;0.30;0.20;;;;;;;;;;4936213;28;20467;-87
2023/12/13 06:05:45;;;;;;;0.20;0.10;;;;;;;;;;4941682;28;20117;-87
2023/12/13 06:08:11;;;;;;;0.20;0.10;;;;;;;;;;4949146;28;20086;-89
2023/12/13 06:10:38;;;;;;;0.20;0.20;;;;;;;;;;4942952;28;20068;-87
2023/12/13 06:13:04;;;;;;;0.20;0.00;;;;;;;;;;4931386;28;20085;-87
2023/12/13 06:15:30;;;;;;;0.20;0.00;;;;;;;;;;4949898;28;20499;-88
2023/12/13 06:17:57;;;;;;;0.20;0.03;;;;;;;;;;4954428;28;20038;-87
2023/12/13 06:20:23;;;;;;;0.20;0.10;;;;;;;;;;4947238;28;20047;-86
2023/12/13 06:22:49;;;;;;;0.68;0.40;;;;;;;;;;4942369;28;20137;-87
2023/12/13 06:25:15;;;;;;;0.20;0.00;;;;;;;;;;4936596;28;20046;-88
2023/12/13 06:27:44;;;;;;;0.20;0.10;;;;;;;;;;4935845;28;20387;-87
2023/12/13 06:30:10;;;;;;;0.20;0.20;;;;;;;;;;4942845;28;20066;-88
2023/12/13 06:32:39;;;;;;;0.20;0.10;;;;;;;;;;4944136;28;20042;-88
2023/12/13 06:35:08;;;;;;;0.20;0.10;;;;;;;;;;4953547;28;20061;-87
2023/12/13 06:37:39;;;;;;;0.20;0.10;;;;;;;;;;4938739;28;20034;-88
2023/12/13 06:40:08;;;;;;;0.20;0.15;;;;;;;;;;4957432;28;20086;-87
2023/12/13 06:42:37;;;;;;;0.20;0.10;;;;;;;;;;4947606;28;20043;-85
2023/12/13 06:45:11;;;;;;;0.20;0.20;;;;;;;;;;4950961;28;20043;-87
2023/12/13 06:47:37;;;;;;;0.20;0.10;;;;;;;;;;4939485;28;20046;-87
2023/12/13 06:50:03;;;;;;;0.20;0.10;;;;;;;;;;4935094;28;20039;-87
2023/12/13 06:52:31;;;;;;;0.20;0.10;;;;;;;;;;4949622;28;20046;-86
2023/12/13 06:54:57;;;;;;;0.52;0.52;;;;;;;;;;4937771;28;20119;-86
2023/12/13 06:57:23;;;;;;;0.20;0.00;;;;;;;;;;4939698;28;20083;-86
2023/12/13 06:59:51;;;;;;;0.20;0.10;;;;;;;;;;4935874;28;20045;-86
2023/12/13 07:02:17;;;;;;;2.15;0.50;;;;;;;;;;4953138;28;20656;-86
2023/12/13 07:04:44;;;;;;;0.20;0.15;;;;;;;;;;4934693;28;20122;-86
2023/12/13 07:07:14;;;;;;;0.20;0.00;;;;;;;;;;4937661;28;20065;-86
2023/12/13 07:09:44;;;;;;;0.20;0.00;;;;;;;;;;4948127;28;20043;-86
2023/12/13 07:12:10;;;;;;;0.20;0.10;;;;;;;;;;4950974;28;20050;-86
2023/12/13 07:14:36;;;;;;;0.20;0.10;;;;;;;;;;4952765;28;20062;-86
2023/12/13 07:17:03;;;;;;;0.20;0.10;;;;;;;;;;4938498;28;20507;-86
2023/12/13 07:19:32;;;;;;;0.20;0.10;;;;;;;;;;4951472;28;20043;-87
2023/12/13 07:21:58;;;;;;;0.20;0.00;;;;;;;;;;4939148;28;20078;-86
2023/12/13 07:24:24;;;;;;;0.20;0.00;;;;;;;;;;4940264;28;20046;-86
2023/12/13 07:26:51;;;;;;;0.20;0.10;;;;;;;;;;4959305;28;20125;-85
2023/12/13 07:29:17;;;;;;;0.20;0.00;;;;;;;;;;4953625;28;20057;-86
2023/12/13 07:31:43;;;;;;;0.20;0.10;;;;;;;;;;4950468;28;20452;-86
2023/12/13 07:34:09;;;;;;;0.20;0.10;;;;;;;;;;4947758;28;20046;-86
2023/12/13 07:36:36;;;;;;;0.20;0.10;;;;;;;;;;4952954;28;20046;-86
2023/12/13 07:39:03;;;;;;;0.20;0.10;;;;;;;;;;4937007;28;20047;-86
2023/12/13 07:41:29;;;;;;;0.20;0.00;;;;;;;;;;4944228;28;20039;-88
2023/12/13 07:43:55;;;;;;;0.20;0.10;;;;;;;;;;4935504;28;20385;-86
2023/12/13 07:46:21;;;;;;;0.20;0.10;;;;;;;;;;4949729;28;20491;-85
2023/12/13 07:48:51;;;;;;;0.20;0.10;;;;;;;;;;4948670;28;20035;-86
2023/12/13 07:51:17;;;;;;;0.20;0.00;;;;;;;;;;4948405;28;20047;-85
2023/12/13 07:53:43;;;;;;;0.20;0.00;;;;;;;;;;4949144;28;20046;-85
2023/12/13 07:56:09;;;;;;;0.20;0.00;;;;;;;;;;4932307;29;20089;-87
2023/12/13 07:58:35;;;;;;;0.20;0.00;;;;;;;;;;4942473;28;20506;-85
2023/12/13 08:01:01;;;;;;;0.50;0.40;;;;;;;;;;4952087;28;20388;-86
2023/12/13 08:03:27;;;;;;;0.20;0.03;;;;;;;;;;4952295;28;20039;-86
2023/12/13 08:05:53;;;;;;;0.20;0.00;;;;;;;;;;4963346;28;20463;-86
2023/12/13 08:08:19;;;;;;;0.20;0.10;;;;;;;;;;4957662;28;20407;-86
2023/12/13 08:10:46;;;;;;;0.20;0.10;;;;;;;;;;4953489;28;20050;-85
2023/12/13 08:13:12;;;;;;;0.20;0.10;;;;;;;;;;4955812;28;20660;-85
2023/12/13 08:15:38;;;;;;;0.20;0.10;;;;;;;;;;4949362;28;20045;-85
2023/12/13 08:18:04;;;;;;;0.20;0.10;;;;;;;;;;4937273;28;20788;-85
2023/12/13 08:20:30;;;;;;;0.32;0.32;;;;;;;;;;4956906;28;20090;-86
2023/12/13 08:23:03;;;;;;;0.20;0.10;;;;;;;;;;4958926;28;20042;-86
2023/12/13 08:25:29;;;;;;;0.20;0.10;;;;;;;;;;4955736;28;20542;-86
2023/12/13 08:27:55;;;;;;;0.20;0.10;;;;;;;;;;4941558;28;20046;-85
2023/12/13 08:30:21;;;;;;;0.20;0.00;;;;;;;;;;4956652;28;20030;-85
2023/12/13 08:32:48;;;;;;;0.20;0.10;;;;;;;;;;4952531;28;20047;-86
2023/12/13 08:35:14;;;;;;;0.20;0.13;;;;;;;;;;4942259;28;20031;-86
2023/12/13 08:37:40;;;;;;;0.20;0.10;;;;;;;;;;4940800;28;20053;-85
2023/12/13 08:40:06;;;;;;;0.20;0.10;;;;;;;;;;4939616;28;20719;-85
2023/12/13 08:42:32;;;;;;;0.20;0.10;;;;;;;;;;4952395;28;20046;-86
2023/12/13 08:44:58;;;;;;;0.20;0.20;;;;;;;;;;4955933;28;20494;-88
2023/12/13 08:47:24;;;;;;;0.77;0.50;;;;;;;;;;4959885;28;20093;-85
2023/12/13 08:49:50;;;;;;;0.20;0.10;;;;;;;;;;4957742;28;20053;-85
2023/12/13 08:52:18;;;;;;;0.20;0.10;;;;;;;;;;4975229;23;20252;-85
2023/12/13 08:54:46;;;;;;;0.20;0.10;;;;;;;;;;4924022;28;20071;-84
2023/12/13 08:57:12;;;;;;;0.20;0.10;;;;;;;;;;4918139;29;20035;-84
2023/12/13 08:59:38;;;;;;;0.20;0.20;;;;;;;;;;4916489;29;20043;-84
2023/12/13 09:02:04;;;;;;;0.20;0.10;;;;;;;;;;4931109;29;20519;-84
2023/12/13 09:04:30;;;;;;;0.20;0.00;;;;;;;;;;4931887;29;20056;-84
2023/12/13 09:06:56;;;;;;;0.20;0.00;;;;;;;;;;4946095;29;20039;-84
2023/12/13 09:09:22;;;;;;;0.20;0.00;;;;;;;;;;4932535;29;20763;-85
2023/12/13 09:11:48;;;;;;;0.20;0.10;;;;;;;;;;4946673;28;20047;-84
2023/12/13 09:14:15;;;;;;;0.20;0.03;;;;;;;;;;4929739;29;20059;-84
2023/12/13 09:16:41;;;;;;;0.20;0.10;;;;;;;;;;4944722;28;20028;-84
2023/12/13 09:19:07;;;;;;;0.20;0.10;;;;;;;;;;4946955;29;20044;-84
2023/12/13 09:21:34;;;;;;;0.20;0.10;;;;;;;;;;4930210;29;20035;-85
2023/12/13 09:24:00;;;;;;;0.20;0.00;;;;;;;;;;4942484;29;20408;-84
2023/12/13 09:26:26;;;;;;;0.20;0.03;;;;;;;;;;4924933;28;20375;-84
2023/12/13 09:28:55;;;;;;;0.20;0.10;;;;;;;;;;4930726;28;20547;-84
2023/12/13 09:31:21;;;;;;;0.20;0.10;;;;;;;;;;4961542;28;20044;-85
2023/12/13 09:33:49;;;;;;;0.20;0.20;;;;;;;;;;4927155;29;20043;-85
2023/12/13 09:36:17;;;;;;;0.20;0.10;;;;;;;;;;4947232;28;20126;-84
2023/12/13 09:38:43;;;;;;;0.20;0.10;;;;;;;;;;4950119;28;20078;-84
2023/12/13 09:41:09;;;;;;;0.20;0.20;;;;;;;;;;4960967;28;20055;-84
2023/12/13 09:43:38;;;;;;;0.20;0.00;;;;;;;;;;4933246;29;20053;-84
2023/12/13 09:46:05;;;;;;;0.22;0.20;;;;;;;;;;4950642;28;20051;-84
2023/12/13 09:48:34;;;;;;;0.20;0.00;;;;;;;;;;4948205;28;20051;-85
2023/12/13 09:51:00;;;;;;;0.20;0.00;;;;;;;;;;4951701;28;20571;-84
2023/12/13 09:53:28;;;;;;;0.20;0.00;;;;;;;;;;4951376;28;20512;-84
2023/12/13 09:55:55;;;;;;;0.20;0.00;;;;;;;;;;4947918;28;20102;-84
2023/12/13 09:58:21;;;;;;;0.20;0.10;;;;;;;;;;4932612;29;20039;-84
2023/12/13 10:00:47;;;;;;;0.55;0.40;;;;;;;;;;4931858;29;20446;-85
2023/12/13 10:03:13;;;;;;;0.20;0.00;;;;;;;;;;4950990;29;20518;-85
2023/12/13 10:05:42;;;;;;;0.20;0.10;;;;;;;;;;4951162;29;20035;-84
2023/12/13 10:08:12;;;;;;;0.20;0.10;;;;;;;;;;4951141;28;20043;-84
2023/12/13 10:10:38;;;;;;;0.20;0.10;;;;;;;;;;4951278;29;20492;-85
2023/12/13 10:13:06;;;;;;;0.20;0.10;;;;;;;;;;4960635;28;20202;-84
2023/12/13 10:15:32;;;;;;;0.20;0.10;;;;;;;;;;4931624;29;20512;-83
2023/12/13 10:17:59;;;;;;;0.20;0.00;;;;;;;;;;4934242;29;20102;-84
2023/12/13 10:20:26;;;;;;;0.20;0.08;;;;;;;;;;4935122;28;20381;-84
2023/12/13 10:22:53;;;;;;;0.20;0.20;;;;;;;;;;4949792;29;20047;-85
2023/12/13 10:25:20;;;;;;;0.20;0.10;;;;;;;;;;4932079;29;20039;-84
2023/12/13 10:27:46;;;;;;;0.25;0.25;;;;;;;;;;4932617;28;20035;-84
2023/12/13 10:30:12;;;;;;;0.20;0.10;;;;;;;;;;4929894;29;20043;-85
2023/12/13 10:32:40;;;;;;;0.20;0.00;;;;;;;;;;4949641;28;20043;-84
2023/12/13 10:35:07;;;;;;;0.68;0.55;;;;;;;;;;4934322;29;20516;-85
2023/12/13 10:37:36;;;;;;;0.20;0.10;;;;;;;;;;4939947;29;20066;-85
2023/12/13 10:40:03;;;;;;;0.20;0.10;;;;;;;;;;4955012;28;20492;-84
2023/12/13 10:42:30;;;;;;;0.20;0.10;;;;;;;;;;4929094;28;20065;-83
2023/12/13 10:44:56;;;;;;;0.20;0.10;;;;;;;;;;4939754;29;20046;-84
2023/12/13 10:47:26;;;;;;;0.20;0.10;;;;;;;;;;4955707;29;20106;-84
2023/12/13 10:49:53;;;;;;;0.20;0.00;;;;;;;;;;4943526;29;20047;-84
2023/12/13 10:52:21;;;;;;;0.20;0.10;;;;;;;;;;4955972;28;20043;-84
2023/12/13 10:54:53;;;;;;;0.20;0.20;;;;;;;;;;4939732;29;20039;-85
2023/12/13 10:57:19;;;;;;;0.65;0.50;;;;;;;;;;4941877;29;20081;-85
2023/12/13 10:59:46;;;;;;;0.20;0.00;;;;;;;;;;4957067;29;20039;-84
2023/12/13 11:02:13;;;;;;;0.20;0.00;;;;;;;;;;4951669;28;20034;-85
2023/12/13 11:04:40;;;;;;;0.20;0.00;;;;;;;;;;4956887;29;20042;-85
2023/12/13 11:07:06;;;;;;;0.35;0.30;;;;;;;;;;4937376;29;20053;-84
2023/12/13 11:09:32;;;;;;;0.20;0.10;;;;;;;;;;4957788;29;20039;-84
2023/12/13 11:12:09;;;;;;;0.20;0.10;;;;;;;;;;4953635;28;20039;-84
2023/12/13 11:14:35;;;;;;;0.20;0.10;;;;;;;;;;4943434;28;20047;-84
2023/12/13 11:17:01;;;;;;;0.20;0.03;;;;;;;;;;4939815;28;20054;-84
2023/12/13 11:19:28;;;;;;;0.35;0.13;;;;;;;;;;4942902;29;20130;-84
2023/12/13 11:21:56;;;;;;;0.20;0.10;;;;;;;;;;4960006;28;20074;-84
2023/12/13 11:24:25;;;;;;;0.30;0.25;;;;;;;;;;4972597;28;20035;-84
2023/12/13 11:26:52;;;;;;;0.95;0.40;;;;;;;;;;4958906;28;20051;-84
2023/12/13 11:29:23;;;;;;;0.20;0.10;;;;;;;;;;4943283;29;20077;-84
2023/12/13 11:31:53;;;;;;;0.20;0.08;;;;;;;;;;4942657;29;20090;-84
2023/12/13 11:34:32;;;;;;;0.20;0.00;;;;;;;;;;4962120;28;20035;-84
2023/12/13 11:37:02;;;;;;;0.40;0.28;;;;;;;;;;4962778;28;20468;-85
2023/12/13 11:39:29;;;;;;;0.20;0.10;;;;;;;;;;4953325;28;20115;-85
2023/12/13 11:41:55;;;;;;;0.22;0.17;;;;;;;;;;4961911;28;20097;-83
2023/12/13 11:44:21;;;;;;;0.57;0.30;;;;;;;;;;4964525;28;20070;-84
2023/12/13 11:46:57;;;;;;;0.20;0.20;;;;;;;;;;4944167;28;20219;-85
2023/12/13 11:49:24;;;;;;;0.20;0.08;;;;;;;;;;4963144;29;20047;-84
2023/12/13 11:51:51;;;;;;;0.20;0.10;;;;;;;;;;4964479;28;20410;-85
2023/12/13 11:54:17;;;;;;;0.20;0.10;;;;;;;;;;4966460;28;20047;-84
2023/12/13 11:56:43;;;;;;;0.28;0.13;;;;;;;;;;4949704;29;20074;-84
2023/12/13 11:59:10;;;;;;;0.20;0.08;;;;;;;;;;4964069;28;20047;-85
2023/12/13 12:01:36;;;;;;;0.20;0.15;;;;;;;;;;4957934;28;20043;-85
2023/12/13 12:04:02;;;;;;;0.20;0.10;;;;;;;;;;4963389;28;20106;-85
2023/12/13 12:06:28;;;;;;;0.20;0.00;;;;;;;;;;4967794;29;20047;-85
2023/12/13 12:08:54;;;;;;;0.20;0.00;;;;;;;;;;4949461;29;20078;-84
2023/12/13 12:11:21;;;;;;;0.20;0.10;;;;;;;;;;4965545;28;20043;-85
2023/12/13 12:13:50;;;;;;;0.20;0.10;;;;;;;;;;4946661;29;20070;-85
2023/12/13 12:16:16;;;;;;;0.20;0.10;;;;;;;;;;4966796;29;20370;-84
2023/12/13 12:18:43;;;;;;;0.20;0.10;;;;;;;;;;4949681;29;20098;-84
2023/12/13 12:21:09;;;;;;;0.20;0.10;;;;;;;;;;4969940;28;20106;-85
2023/12/13 12:23:42;;;;;;;0.20;0.05;;;;;;;;;;4962714;28;20035;-85
2023/12/13 12:26:12;;;;;;;0.20;0.10;;;;;;;;;;4962045;29;20054;-84
2023/12/13 12:28:40;;;;;;;0.20;0.10;;;;;;;;;;4947133;29;20050;-84
2023/12/13 12:31:08;;;;;;;0.20;0.13;;;;;;;;;;4964460;28;20098;-84
2023/12/13 12:33:34;;;;;;;0.20;0.08;;;;;;;;;;4965685;29;20062;-84
2023/12/13 12:36:00;;;;;;;0.20;0.10;;;;;;;;;;4965754;29;20035;-84
2023/12/13 12:38:26;;;;;;;1.10;0.30;;;;;;;;;;4967392;28;20091;-85
2023/12/13 12:40:52;;;;;;;0.20;0.10;;;;;;;;;;4955205;29;20035;-83
2023/12/13 12:43:19;;;;;;;0.20;0.10;;;;;;;;;;4969576;29;20054;-84
2023/12/13 12:45:46;;;;;;;0.20;0.10;;;;;;;;;;4966396;28;20027;-85
2023/12/13 12:48:12;;;;;;;0.32;0.22;;;;;;;;;;4968818;28;20031;-84
2023/12/13 12:50:38;;;;;;;0.20;0.00;;;;;;;;;;4966898;28;20047;-85
2023/12/13 12:53:04;;;;;;;0.20;0.00;;;;;;;;;;4961059;28;20551;-85
2023/12/13 12:55:30;;;;;;;0.20;0.05;;;;;;;;;;4970224;28;20027;-85
2023/12/13 12:57:56;;;;;;;0.43;0.25;;;;;;;;;;4963763;28;20051;-84
2023/12/13 13:00:22;;;;;;;0.20;0.08;;;;;;;;;;4967315;28;20418;-85
2023/12/13 13:02:49;;;;;;;0.20;0.20;;;;;;;;;;4984109;28;20031;-84
2023/12/13 13:05:15;;;;;;;0.20;0.00;;;;;;;;;;4970519;28;20035;-84
2023/12/13 13:07:45;;;;;;;0.20;0.20;;;;;;;;;;4969777;28;20058;-84
2023/12/13 13:10:11;;;;;;;0.20;0.20;;;;;;;;;;4963739;28;20051;-85
2023/12/13 13:12:41;;;;;;;0.20;0.03;;;;;;;;;;4965345;28;20401;-84
2023/12/13 13:15:07;;;;;;;0.20;0.10;;;;;;;;;;4970536;29;20026;-85
2023/12/13 13:17:33;;;;;;;0.50;0.30;;;;;;;;;;4962090;28;20122;-84
2023/12/13 13:20:01;;;;;;;0.20;0.00;;;;;;;;;;4960940;28;20046;-86
2023/12/13 13:22:27;;;;;;;0.20;0.10;;;;;;;;;;4942324;29;20090;-86
2023/12/13 13:24:53;;;;;;;0.20;0.20;;;;;;;;;;4966995;28;20051;-87
2023/12/13 13:27:20;;;;;;;0.20;0.10;;;;;;;;;;4936934;29;20090;-87
2023/12/13 13:29:46;;;;;;;0.38;0.20;;;;;;;;;;4939393;29;20076;-86
2023/12/13 13:32:12;;;;;;;0.20;0.00;;;;;;;;;;4942423;29;20062;-87
2023/12/13 13:34:38;;;;;;;0.20;0.10;;;;;;;;;;4960798;28;20047;-86
2023/12/13 13:37:04;;;;;;;0.20;0.10;;;;;;;;;;4955303;29;20055;-87
2023/12/13 13:39:30;;;;;;;0.20;0.08;;;;;;;;;;4934944;28;20039;-87
2023/12/13 13:41:56;;;;;;;0.20;0.00;;;;;;;;;;4934454;29;20595;-86
2023/12/13 13:44:22;;;;;;;0.20;0.00;;;;;;;;;;4950361;28;20039;-88
2023/12/13 13:46:50;;;;;;;0.20;0.00;;;;;;;;;;4936787;28;20407;-86
2023/12/13 13:49:18;;;;;;;0.40;0.35;;;;;;;;;;4951662;28;20055;-87
2023/12/13 13:51:45;;;;;;;0.57;0.57;;;;;;;;;;4937044;29;20043;-87
2023/12/13 13:54:11;;;;;;;0.88;0.35;;;;;;;;;;4935962;29;20042;-86
2023/12/13 13:56:37;;;;;;;0.20;0.10;;;;;;;;;;4949580;28;20039;-88
2023/12/13 13:59:03;;;;;;;0.20;0.10;;;;;;;;;;4937157;29;20050;-86
2023/12/13 14:01:31;;;;;;;0.20;0.10;;;;;;;;;;4948083;28;20035;-86
2023/12/13 14:04:00;;;;;;;0.20;0.10;;;;;;;;;;4934318;29;20078;-88
2023/12/13 14:06:26;;;;;;;0.57;0.47;;;;;;;;;;4935719;29;20039;-88
2023/12/13 14:08:53;;;;;;;0.43;0.43;;;;;;;;;;4943171;29;20095;-87
2023/12/13 14:11:19;;;;;;;1.23;0.15;;;;;;;;;;4952947;28;20043;-88
2023/12/13 14:13:46;;;;;;;0.20;0.00;;;;;;;;;;4936658;29;20035;-87
2023/12/13 14:16:13;;;;;;;0.20;0.10;;;;;;;;;;4952850;29;20134;-86
2023/12/13 14:18:39;;;;;;;0.20;0.10;;;;;;;;;;4954586;29;20511;-87
2023/12/13 14:21:05;;;;;;;0.20;0.10;;;;;;;;;;4929925;29;20512;-87
2023/12/13 14:23:32;;;;;;;0.20;0.10;;;;;;;;;;4949937;28;20043;-87
2023/12/13 14:25:58;;;;;;;0.20;0.10;;;;;;;;;;4930963;29;20047;-86
2023/12/13 14:28:24;;;;;;;0.20;0.20;;;;;;;;;;4947433;28;20043;-86
2023/12/13 14:30:50;;;;;;;0.28;0.15;;;;;;;;;;4953100;28;20046;-87
2023/12/13 14:33:29;;;;;;;0.20;0.00;;;;;;;;;;4932493;29;20043;-88
2023/12/13 14:36:07;;;;;;;0.20;0.00;;;;;;;;;;4942887;28;20735;-87
2023/12/13 14:38:33;;;;;;;0.95;0.20;;;;;;;;;;4927945;29;20047;-84
2023/12/13 14:41:02;;;;;;;0.20;0.10;;;;;;;;;;4933175;29;20047;-89